Terminal Aerodrome Forecast
Issued by NWS Denver/Boulder, CO

Home | Current Version | Previous Version | Text Only | Print | Product List | Glossary On
Versions: 1 2 3 4 5 6 7 8 9 10 11 12 13 14 15 16 17 18 19 20 21 22 23 24 25 26 27 28 29 30 31 32 33 34 35 36 37 38 39 40 41 42 43 44 45 46 47 48 49 50
000
FTUS45 KBOU 110013 AAB
TAFDEN
TAF AMD
KDEN 110013Z 1100/1206 17014KT P6SM SCT090 BKN120
     FM110100 23013KT P6SM VCSH SCT100 BKN140
     FM110300 28011KT P6SM SCT110 BKN150
     FM110500 23008KT P6SM FEW150 SCT220
     FM111600 35012KT P6SM SCT120 BKN220
     FM111900 04015KT P6SM FEW080 SCT120 BKN160
     FM112000 08012KT P6SM VCTS SCT070CB BKN100
      TEMPO 1121/1201 VRB20G30KT 5SM TSRAGS BKN060CB
     FM120400 25008KT P6SM SCT090 BKN140=

USA.gov is the U.S. government's official web portal to all federal, state and local government web resources and services.